Time;durP1;ratioP1;P1;durP2;ratioP2;P2;SDS_P1;SDS_P2;PMS_P1;PMS_P2;Temp;Humidity;BMP_temperature;BMP_pressure;BME280_temperature;BME280_humidity;BME280_pressure;Samples;Min_cycle;Max_cycle;Signal;HPM_P1;HPM_P2
2021/01/04 00:01:35;;;;;;;11.63;8.10;;;2.30;99.90;;;;;;6112385;23;20492;-80
2021/01/04 00:04:45;;;;;;;8.40;7.50;;;2.40;99.90;;;;;;6105955;23;20425;-80
2021/01/04 00:07:26;;;;;;;9.13;7.50;;;2.40;99.90;;;;;;6111430;23;20446;-79
2021/01/04 00:10:12;;;;;;;13.53;10.03;;;2.30;99.90;;;;;;6136618;23;20819;-79
2021/01/04 00:12:47;;;;;;;12.23;9.37;;;2.40;99.90;;;;;;6111659;23;20370;-79
2021/01/04 00:15:33;;;;;;;11.30;8.30;;;2.30;99.90;;;;;;6110513;23;21062;-79
2021/01/04 00:18:15;;;;;;;15.27;9.73;;;2.30;99.90;;;;;;6160536;23;20346;-79
2021/01/04 00:20:53;;;;;;;12.40;8.17;;;2.30;99.90;;;;;;6110718;23;20788;-79
2021/01/04 00:23:40;;;;;;;13.90;9.80;;;2.30;99.90;;;;;;6138333;23;20433;-79
2021/01/04 00:26:39;;;;;;;13.07;9.00;;;2.30;99.90;;;;;;6135908;23;20451;-79
2021/01/04 00:29:06;;;;;;;13.67;9.80;;;2.30;99.90;;;;;;6098730;23;21106;-79
2021/01/04 00:31:41;;;;;;;16.83;10.40;;;2.30;99.90;;;;;;6111758;23;20370;-79
2021/01/04 00:34:25;;;;;;;13.60;10.30;;;2.30;99.90;;;;;;6110412;23;20921;-79
2021/01/04 00:37:03;;;;;;;12.63;9.53;;;2.30;99.90;;;;;;6109919;23;20429;-79
2021/01/04 00:39:39;;;;;;;11.63;7.80;;;2.30;99.90;;;;;;6160849;23;20771;-79
2021/01/04 00:42:34;;;;;;;16.50;10.40;;;2.30;99.90;;;;;;6134721;23;20379;-79
2021/01/04 00:45:30;;;;;;;12.87;10.20;;;2.30;99.90;;;;;;6135122;23;20471;-79
2021/01/04 00:48:21;;;;;;;13.87;9.90;;;2.30;99.90;;;;;;6121667;23;20367;-79
2021/01/04 00:50:59;;;;;;;12.53;9.73;;;2.20;99.90;;;;;;6136723;23;20451;-79
2021/01/04 00:53:38;;;;;;;13.33;10.13;;;2.30;99.90;;;;;;6111157;23;20321;-79
2021/01/04 00:56:27;;;;;;;13.40;10.20;;;2.30;99.90;;;;;;6135113;23;20447;-79
2021/01/04 00:59:12;;;;;;;13.03;10.20;;;2.30;99.90;;;;;;6110474;23;20342;-79
2021/01/04 01:02:11;;;;;;;14.40;10.90;;;2.40;99.90;;;;;;6134091;23;20375;-79
2021/01/04 01:04:41;;;;;;;13.23;10.27;;;2.40;99.90;;;;;;6135534;23;20334;-79
2021/01/04 01:07:22;;;;;;;15.00;12.10;;;2.40;99.90;;;;;;6132971;23;20357;-79
2021/01/04 01:09:52;;;;;;;16.30;11.37;;;2.30;99.90;;;;;;6133755;23;20477;-79
2021/01/04 01:12:35;;;;;;;14.97;10.20;;;2.40;99.90;;;;;;6136650;23;20345;-80
2021/01/04 01:15:24;;;;;;;15.33;10.30;;;2.30;99.90;;;;;;6137298;23;20700;-79
2021/01/04 01:18:08;;;;;;;14.77;10.20;;;2.20;99.90;;;;;;6111958;23;20341;-79
2021/01/04 01:20:41;;;;;;;15.97;10.30;;;2.10;99.90;;;;;;6162334;23;20364;-79
2021/01/04 01:23:11;;;;;;;18.27;11.63;;;2.10;99.90;;;;;;6137164;23;20358;-79
2021/01/04 01:25:46;;;;;;;14.73;10.93;;;2.10;99.90;;;;;;6134505;23;20365;-79
2021/01/04 01:28:35;;;;;;;13.80;9.67;;;2.20;99.90;;;;;;6159147;23;20703;-79
2021/01/04 01:31:38;;;;;;;18.90;11.73;;;2.00;99.90;;;;;;6109668;23;20795;-79
2021/01/04 01:34:14;;;;;;;16.47;11.90;;;2.10;99.90;;;;;;6110754;23;20683;-79
2021/01/04 01:36:52;;;;;;;14.83;11.57;;;2.10;99.90;;;;;;6135651;23;20333;-79
2021/01/04 01:39:56;;;;;;;14.27;11.97;;;2.20;99.90;;;;;;6135002;23;20378;-79
2021/01/04 01:43:01;;;;;;;18.43;11.33;;;2.10;99.90;;;;;;6021324;23;20604;-79
2021/01/04 01:45:35;;;;;;;12.90;9.20;;;2.10;99.90;;;;;;6020622;23;20617;-79
2021/01/04 01:48:36;;;;;;;18.87;12.43;;;2.10;99.90;;;;;;6045799;23;20375;-79
2021/01/04 01:51:11;;;;;;;15.83;11.00;;;2.10;99.90;;;;;;6018033;23;20440;-79
2021/01/04 01:54:15;;;;;;;16.63;11.40;;;2.00;99.90;;;;;;6019709;23;20350;-79
2021/01/04 01:57:07;;;;;;;15.73;11.17;;;2.10;99.90;;;;;;6004062;23;20336;-79
2021/01/04 01:59:42;;;;;;;14.80;10.57;;;2.10;99.90;;;;;;6021420;23;20369;-79
2021/01/04 02:02:18;;;;;;;13.57;11.17;;;2.10;99.90;;;;;;6020132;23;20908;-79
2021/01/04 02:05:00;;;;;;;16.60;11.93;;;2.10;99.90;;;;;;6022239;23;20362;-79
2021/01/04 02:07:47;;;;;;;13.43;10.00;;;2.10;99.90;;;;;;6021898;23;20365;-79
2021/01/04 02:10:20;;;;;;;13.60;10.40;;;2.10;99.90;;;;;;6022216;23;20346;-79
2021/01/04 02:12:56;;;;;;;14.37;10.00;;;2.10;99.90;;;;;;6076069;23;20596;-79
2021/01/04 02:15:31;;;;;;;13.87;9.37;;;2.20;99.90;;;;;;6121771;23;20385;-77
2021/01/04 02:18:30;;;;;;;12.83;10.37;;;2.20;99.90;;;;;;6072283;23;20350;-77
2021/01/04 02:21:34;;;;;;;15.67;11.03;;;2.20;99.90;;;;;;6097964;23;20342;-77
2021/01/04 02:24:09;;;;;;;17.93;11.50;;;2.20;99.90;;;;;;6068693;23;20382;-76
2021/01/04 02:26:39;;;;;;;13.70;10.83;;;2.20;99.90;;;;;;6093032;23;20364;-77
2021/01/04 02:29:31;;;;;;;12.20;9.53;;;2.10;99.90;;;;;;6073712;23;20351;-77
2021/01/04 02:32:00;;;;;;;15.73;11.10;;;2.20;99.90;;;;;;6093166;23;20452;-76
2021/01/04 02:34:31;;;;;;;15.53;11.60;;;2.30;99.90;;;;;;6098641;23;20828;-77
2021/01/04 02:36:59;;;;;;;12.77;9.53;;;2.30;99.90;;;;;;6098897;23;20398;-77
2021/01/04 02:39:44;;;;;;;20.27;13.20;;;2.20;99.90;;;;;;6098472;23;20380;-77
2021/01/04 02:42:24;;;;;;;14.13;10.17;;;2.30;99.90;;;;;;6099110;23;20374;-77
2021/01/04 02:44:51;;;;;;;13.30;10.10;;;2.30;99.90;;;;;;6074142;23;20392;-77
2021/01/04 02:47:37;;;;;;;17.20;11.40;;;2.30;99.90;;;;;;6096505;23;20373;-77
2021/01/04 02:50:41;;;;;;;19.43;12.60;;;2.30;99.90;;;;;;6098530;23;20354;-77
2021/01/04 02:53:26;;;;;;;23.87;11.30;;;2.30;99.90;;;;;;6098068;23;20371;-76
2021/01/04 02:56:11;;;;;;;12.93;10.00;;;2.20;99.90;;;;;;6097952;23;20423;-76
2021/01/04 02:59:02;;;;;;;16.77;11.80;;;2.20;99.90;;;;;;6101028;23;20879;-78
2021/01/04 03:01:51;;;;;;;13.27;10.97;;;2.20;99.90;;;;;;6073434;23;20368;-78
2021/01/04 03:04:20;;;;;;;15.47;11.10;;;2.20;99.90;;;;;;6097155;23;20387;-77
2021/01/04 03:07:10;;;;;;;18.47;12.67;;;2.10;99.90;;;;;;6097772;23;20373;-77
2021/01/04 03:09:36;;;;;;;15.57;9.60;;;1.90;99.90;;;;;;6097258;23;20418;-77
2021/01/04 03:12:08;;;;;;;16.17;10.87;;;1.80;99.90;;;;;;6098425;23;20379;-77
2021/01/04 03:14:34;;;;;;;16.40;10.87;;;1.80;99.90;;;;;;6099208;23;20474;-77
2021/01/04 03:17:07;;;;;;;18.73;12.40;;;1.90;99.90;;;;;;6072742;23;20486;-77
2021/01/04 03:19:38;;;;;;;20.37;10.77;;;1.90;99.90;;;;;;6073243;23;20180;-77
2021/01/04 03:22:07;;;;;;;16.20;12.60;;;1.90;99.90;;;;;;6049661;23;20916;-77
2021/01/04 03:24:33;;;;;;;18.93;12.30;;;1.90;99.90;;;;;;6100546;23;20331;-77
2021/01/04 03:27:11;;;;;;;19.10;11.13;;;2.00;99.90;;;;;;6025292;23;20575;-77
2021/01/04 03:29:37;;;;;;;15.27;11.40;;;2.00;99.90;;;;;;6049584;23;20181;-77
2021/01/04 03:32:03;;;;;;;14.83;11.40;;;2.10;99.90;;;;;;6048379;23;20351;-77
2021/01/04 03:34:28;;;;;;;14.43;10.63;;;2.10;99.90;;;;;;6074503;23;20204;-77
2021/01/04 03:36:54;;;;;;;15.30;10.93;;;2.10;99.90;;;;;;6001771;23;20828;-77
2021/01/04 03:39:20;;;;;;;16.70;12.00;;;2.10;99.90;;;;;;6100151;23;20525;-77
2021/01/04 03:41:47;;;;;;;16.83;11.30;;;2.10;99.90;;;;;;6050200;23;20189;-77
2021/01/04 03:44:13;;;;;;;19.03;12.87;;;2.10;99.90;;;;;;6025768;23;20187;-77
2021/01/04 03:46:45;;;;;;;13.67;10.70;;;2.10;99.90;;;;;;6024591;23;20362;-77
2021/01/04 03:49:11;;;;;;;13.17;10.40;;;2.10;99.90;;;;;;6073767;23;20176;-77
2021/01/04 03:51:36;;;;;;;18.50;12.10;;;2.10;99.90;;;;;;6074011;23;20440;-78
2021/01/04 03:54:02;;;;;;;19.00;13.50;;;2.10;99.90;;;;;;5999588;23;20240;-77
2021/01/04 03:56:28;;;;;;;17.17;11.77;;;2.10;99.90;;;;;;6025372;23;20721;-79
2021/01/04 03:58:54;;;;;;;19.23;13.07;;;2.10;99.90;;;;;;6051916;23;20675;-77
2021/01/04 04:01:19;;;;;;;18.37;12.87;;;2.10;99.90;;;;;;6048602;23;20537;-77
2021/01/04 04:03:45;;;;;;;17.53;12.00;;;2.10;99.90;;;;;;6099353;23;20177;-77
2021/01/04 04:06:11;;;;;;;17.20;12.53;;;2.10;99.90;;;;;;6024778;23;20177;-76
2021/01/04 04:08:42;;;;;;;19.17;12.23;;;2.10;99.90;;;;;;6050557;23;20220;-77
2021/01/04 04:11:08;;;;;;;15.07;10.87;;;2.10;99.90;;;;;;6073515;23;20933;-77
2021/01/04 04:13:34;;;;;;;16.73;11.60;;;2.10;99.90;;;;;;6098483;23;20392;-77
2021/01/04 04:16:00;;;;;;;17.97;12.07;;;2.10;99.90;;;;;;6071779;23;20786;-78
2021/01/04 04:18:26;;;;;;;16.50;12.03;;;2.10;99.90;;;;;;6097124;23;20331;-78
2021/01/04 04:20:53;;;;;;;19.07;13.17;;;2.20;99.90;;;;;;6076088;23;20384;-78
2021/01/04 04:23:18;;;;;;;15.80;10.17;;;2.10;99.90;;;;;;6096969;23;20810;-77
2021/01/04 04:25:44;;;;;;;13.30;10.70;;;2.10;99.90;;;;;;6098356;23;20432;-77
2021/01/04 04:28:10;;;;;;;16.07;11.03;;;2.10;99.90;;;;;;6098884;23;20550;-78
2021/01/04 04:30:36;;;;;;;16.90;11.10;;;2.10;99.90;;;;;;6050519;23;20422;-78
2021/01/04 04:33:01;;;;;;;19.60;12.30;;;2.10;99.90;;;;;;6096372;23;20181;-78
2021/01/04 04:35:28;;;;;;;18.47;12.30;;;2.10;99.90;;;;;;6098760;23;20180;-77
2021/01/04 04:37:54;;;;;;;14.70;10.70;;;2.20;99.90;;;;;;6073943;23;20317;-77
2021/01/04 04:40:24;;;;;;;15.27;11.17;;;2.10;99.90;;;;;;6049471;23;20459;-78
2021/01/04 04:42:55;;;;;;;15.40;11.37;;;2.10;99.90;;;;;;6098415;23;20391;-77
2021/01/04 04:45:21;;;;;;;16.67;11.70;;;2.10;99.90;;;;;;6074700;23;20358;-77
2021/01/04 04:47:53;;;;;;;18.87;12.50;;;2.20;99.90;;;;;;6097574;23;20463;-76
2021/01/04 04:50:36;;;;;;;14.37;10.13;;;2.10;99.90;;;;;;6075385;23;20371;-77
2021/01/04 04:53:08;;;;;;;10.90;8.37;;;2.10;99.90;;;;;;6099483;23;20350;-77
2021/01/04 04:56:11;;;;;;;14.50;9.93;;;2.20;99.90;;;;;;6100952;23;20842;-77
2021/01/04 04:58:53;;;;;;;16.20;10.30;;;2.10;99.90;;;;;;6096039;23;20470;-77
2021/01/04 05:01:48;;;;;;;14.77;11.67;;;2.10;99.90;;;;;;6099066;23;20438;-77
2021/01/04 05:04:34;;;;;;;15.43;10.87;;;2.10;99.90;;;;;;6102020;23;20337;-77
2021/01/04 05:07:08;;;;;;;16.70;11.67;;;2.20;99.90;;;;;;6071994;23;20382;-77
2021/01/04 05:09:40;;;;;;;16.07;11.60;;;2.10;99.90;;;;;;6099628;23;20350;-77
2021/01/04 05:12:15;;;;;;;16.00;12.17;;;2.10;99.90;;;;;;6098142;23;20860;-77
2021/01/04 05:14:47;;;;;;;15.67;11.47;;;2.20;99.90;;;;;;6099325;23;20439;-77
2021/01/04 05:17:50;;;;;;;17.10;12.27;;;2.20;99.90;;;;;;6074174;23;20364;-77
2021/01/04 05:20:30;;;;;;;12.30;11.00;;;2.20;99.90;;;;;;6075802;23;20894;-76
2021/01/04 05:23:30;;;;;;;15.73;11.60;;;2.20;99.90;;;;;;6098565;23;21107;-76
2021/01/04 05:26:23;;;;;;;18.10;10.80;;;2.20;99.90;;;;;;6098865;23;20386;-76
2021/01/04 05:29:06;;;;;;;15.20;11.40;;;2.20;99.90;;;;;;6074752;23;20349;-77
2021/01/04 05:32:00;;;;;;;15.03;11.13;;;2.20;99.90;;;;;;6073734;23;20347;-77
2021/01/04 05:34:50;;;;;;;16.60;10.93;;;2.10;99.90;;;;;;6099745;23;20410;-77
2021/01/04 05:37:34;;;;;;;17.07;11.50;;;2.20;99.90;;;;;;6098247;23;20427;-77
2021/01/04 05:40:05;;;;;;;14.90;11.40;;;2.10;99.90;;;;;;6101307;23;20334;-77
2021/01/04 05:42:58;;;;;;;18.17;12.30;;;2.10;99.90;;;;;;6099055;23;20884;-77
2021/01/04 05:45:39;;;;;;;15.70;12.10;;;2.10;99.90;;;;;;6075267;23;20968;-77
2021/01/04 05:48:10;;;;;;;18.33;12.40;;;2.10;99.90;;;;;;6099142;23;20694;-77
2021/01/04 05:51:04;;;;;;;16.20;11.93;;;2.20;99.90;;;;;;6099513;23;20764;-77
2021/01/04 05:53:30;;;;;;;13.73;10.10;;;2.20;99.90;;;;;;6100956;23;20445;-77
2021/01/04 05:55:57;;;;;;;21.83;13.37;;;2.20;99.90;;;;;;6051426;23;20437;-76
2021/01/04 05:58:29;;;;;;;12.97;9.67;;;2.20;99.90;;;;;;6098870;23;20667;-76
2021/01/04 06:01:10;;;;;;;17.27;12.40;;;2.10;99.90;;;;;;6074689;23;20681;-77
2021/01/04 06:03:36;;;;;;;15.43;12.13;;;2.10;99.90;;;;;;6101824;23;20762;-77
2021/01/04 06:06:10;;;;;;;16.40;12.20;;;2.10;99.90;;;;;;6074270;23;20362;-77
2021/01/04 06:08:36;;;;;;;15.07;10.47;;;2.20;99.90;;;;;;6101811;23;20243;-77
2021/01/04 06:11:11;;;;;;;15.93;11.00;;;2.10;99.90;;;;;;6074273;23;20395;-77
2021/01/04 06:13:42;;;;;;;17.23;12.67;;;2.00;99.90;;;;;;6099739;23;20865;-78
2021/01/04 06:16:14;;;;;;;19.77;12.77;;;2.10;99.90;;;;;;6098753;23;20883;-77
2021/01/04 06:18:50;;;;;;;16.37;11.57;;;2.00;99.90;;;;;;6099372;23;20350;-76
2021/01/04 06:21:21;;;;;;;17.60;12.27;;;2.00;99.90;;;;;;6100927;23;20783;-77
2021/01/04 06:23:48;;;;;;;13.90;9.77;;;2.10;99.90;;;;;;6075614;23;20467;-77
2021/01/04 06:26:19;;;;;;;17.10;13.33;;;2.10;99.90;;;;;;6048102;23;20358;-77
2021/01/04 06:29:04;;;;;;;21.70;12.43;;;2.10;99.90;;;;;;6099442;23;20906;-77
2021/01/04 06:31:41;;;;;;;17.27;12.53;;;2.20;99.90;;;;;;6075876;23;20371;-77
2021/01/04 06:34:18;;;;;;;18.70;12.60;;;2.20;99.90;;;;;;6075452;23;20407;-77
2021/01/04 06:36:59;;;;;;;18.03;12.43;;;2.20;99.90;;;;;;6070847;23;20443;-79
2021/01/04 06:39:31;;;;;;;14.37;11.27;;;2.20;99.90;;;;;;6073822;23;20390;-76
2021/01/04 06:42:12;;;;;;;18.53;11.97;;;2.20;99.90;;;;;;6071635;23;20391;-76
2021/01/04 06:44:37;;;;;;;16.13;10.90;;;2.20;99.90;;;;;;6099230;23;20367;-76
2021/01/04 06:47:17;;;;;;;13.90;11.37;;;2.30;99.90;;;;;;6098954;23;20383;-76
2021/01/04 06:50:12;;;;;;;17.17;13.07;;;2.20;99.90;;;;;;6100235;23;20171;-77
2021/01/04 06:53:12;;;;;;;19.33;12.43;;;2.30;99.90;;;;;;6051457;23;20349;-77
2021/01/04 06:55:40;;;;;;;16.90;12.20;;;2.30;99.90;;;;;;6093420;23;20354;-76
2021/01/04 06:58:52;;;;;;;20.17;13.07;;;2.30;99.90;;;;;;6093952;23;20366;-76
2021/01/04 07:01:40;;;;;;;16.90;11.73;;;2.40;99.90;;;;;;6096597;23;20450;-77
2021/01/04 07:04:40;;;;;;;18.90;11.57;;;2.30;99.90;;;;;;6094609;23;20398;-76
2021/01/04 07:07:27;;;;;;;16.13;13.00;;;2.30;99.90;;;;;;6095466;23;20375;-77
2021/01/04 07:10:08;;;;;;;19.20;12.90;;;2.30;99.90;;;;;;6073264;23;20707;-76
2021/01/04 07:12:36;;;;;;;15.33;10.37;;;2.30;99.90;;;;;;6097361;23;20423;-77
2021/01/04 07:15:08;;;;;;;21.00;13.67;;;2.30;99.90;;;;;;6072105;23;20396;-77
2021/01/04 07:17:36;;;;;;;17.10;12.30;;;2.40;99.90;;;;;;6096923;23;20338;-76
2021/01/04 07:20:28;;;;;;;14.83;12.20;;;2.40;99.90;;;;;;6097334;23;20387;-76
2021/01/04 07:23:25;;;;;;;15.93;12.43;;;2.40;99.90;;;;;;6059902;23;20435;-77
2021/01/04 07:26:02;;;;;;;18.87;12.60;;;2.40;99.90;;;;;;6056296;23;20816;-76
2021/01/04 07:28:31;;;;;;;17.97;12.27;;;2.40;99.90;;;;;;6096023;23;20368;-76
2021/01/04 07:31:07;;;;;;;19.17;13.10;;;2.40;99.90;;;;;;6095744;23;21352;-77
2021/01/04 07:33:35;;;;;;;16.87;12.17;;;2.40;99.90;;;;;;6071340;23;20347;-76
2021/01/04 07:36:17;;;;;;;17.83;12.70;;;2.40;99.90;;;;;;6095215;23;20337;-77
2021/01/04 07:38:54;;;;;;;15.63;10.90;;;2.40;99.90;;;;;;6072750;23;20346;-76
2021/01/04 07:41:22;;;;;;;22.57;13.10;;;2.40;99.90;;;;;;6096502;23;20353;-77
2021/01/04 07:44:27;;;;;;;15.80;12.13;;;2.40;99.90;;;;;;6095376;23;20434;-76
2021/01/04 07:47:22;;;;;;;17.37;11.50;;;2.40;99.90;;;;;;6093477;23;20375;-77
2021/01/04 07:50:26;;;;;;;17.20;12.80;;;2.40;99.90;;;;;;6052934;23;20362;-76
2021/01/04 07:53:03;;;;;;;16.83;11.50;;;2.40;99.90;;;;;;6096067;23;20389;-76
2021/01/04 07:55:44;;;;;;;15.30;12.00;;;2.50;99.90;;;;;;6095394;23;20375;-76
2021/01/04 07:58:30;;;;;;;17.73;11.40;;;2.50;99.90;;;;;;6093158;23;20386;-76
2021/01/04 08:01:33;;;;;;;14.77;10.53;;;2.50;99.90;;;;;;6010186;23;20399;-76
2021/01/04 08:04:29;;;;;;;19.60;12.10;;;2.50;99.90;;;;;;6096273;23;20435;-77
2021/01/04 08:07:16;;;;;;;16.37;10.43;;;2.50;99.90;;;;;;6092882;23;20343;-76
2021/01/04 08:10:08;;;;;;;15.53;11.80;;;2.50;99.90;;;;;;6097711;23;20785;-76
2021/01/04 08:13:01;;;;;;;18.33;11.43;;;2.50;99.90;;;;;;6065009;23;20364;-76
2021/01/04 08:15:51;;;;;;;20.13;13.80;;;2.50;99.90;;;;;;6068624;23;21321;-76
2021/01/04 08:18:20;;;;;;;17.17;12.20;;;2.50;99.90;;;;;;6097897;23;20414;-77
2021/01/04 08:20:56;;;;;;;16.60;11.03;;;2.50;99.90;;;;;;6095488;23;20794;-76
2021/01/04 08:24:06;;;;;;;15.37;10.60;;;2.50;99.90;;;;;;6091962;23;20477;-76
2021/01/04 08:26:46;;;;;;;14.67;10.87;;;2.50;99.90;;;;;;6093700;23;20791;-76
2021/01/04 08:29:30;;;;;;;19.93;11.47;;;2.50;99.90;;;;;;6071020;23;20330;-77
2021/01/04 08:32:30;;;;;;;17.33;12.10;;;2.50;99.90;;;;;;6097236;23;20355;-77
2021/01/04 08:35:11;;;;;;;15.87;11.67;;;2.40;99.90;;;;;;6072066;23;20916;-77
2021/01/04 08:37:41;;;;;;;14.00;10.27;;;2.50;99.90;;;;;;6094303;23;20741;-77
2021/01/04 08:40:19;;;;;;;15.83;11.13;;;2.50;99.90;;;;;;6072082;23;20393;-77
2021/01/04 08:42:45;;;;;;;15.87;11.50;;;2.50;99.90;;;;;;6072624;23;20358;-77
2021/01/04 08:45:14;;;;;;;17.20;11.90;;;2.50;99.90;;;;;;6047533;23;20698;-77
2021/01/04 08:47:48;;;;;;;15.80;12.00;;;2.50;99.90;;;;;;6047260;23;20387;-77
2021/01/04 08:50:22;;;;;;;11.03;8.60;;;2.50;99.90;;;;;;6095856;23;20351;-77
2021/01/04 08:52:50;;;;;;;12.33;8.97;;;2.50;99.90;;;;;;6071009;23;20350;-77
2021/01/04 08:55:28;;;;;;;17.60;10.77;;;2.60;99.90;;;;;;6095087;23;20387;-77
2021/01/04 08:57:54;;;;;;;17.07;11.17;;;2.50;99.90;;;;;;6065529;23;20822;-77
2021/01/04 09:00:30;;;;;;;18.97;12.23;;;2.60;99.90;;;;;;6097495;23;20382;-77
2021/01/04 09:02:56;;;;;;;18.87;12.77;;;2.60;99.90;;;;;;6097827;23;20350;-76
2021/01/04 09:05:38;;;;;;;18.27;11.93;;;2.60;99.90;;;;;;6094092;23;20350;-76
2021/01/04 09:08:06;;;;;;;15.03;9.17;;;2.60;99.90;;;;;;6097582;23;20349;-76
2021/01/04 09:10:43;;;;;;;14.53;11.17;;;2.50;99.90;;;;;;6094654;23;20350;-76
2021/01/04 09:13:23;;;;;;;18.53;9.37;;;2.60;99.90;;;;;;6095250;23;20359;-76
2021/01/04 09:15:55;;;;;;;10.57;7.67;;;2.60;99.90;;;;;;6071695;23;20366;-76
2021/01/04 09:18:31;;;;;;;15.90;9.63;;;2.60;99.90;;;;;;6072091;23;20473;-76
2021/01/04 09:21:06;;;;;;;14.03;10.20;;;2.60;99.90;;;;;;6071035;23;20371;-76
2021/01/04 09:23:40;;;;;;;14.30;9.57;;;2.60;99.90;;;;;;6097697;23;20438;-76
2021/01/04 09:26:32;;;;;;;14.20;8.70;;;2.60;99.90;;;;;;6071216;23;20834;-76
2021/01/04 09:29:23;;;;;;;16.63;11.67;;;2.70;99.90;;;;;;6091678;23;20403;-76
2021/01/04 09:32:07;;;;;;;14.33;10.73;;;2.70;99.90;;;;;;6096538;23;20639;-76
2021/01/04 09:34:32;;;;;;;11.63;7.87;;;2.70;99.90;;;;;;6095375;23;20483;-76
2021/01/04 09:37:05;;;;;;;16.63;10.40;;;2.60;99.90;;;;;;6048104;23;20874;-76
2021/01/04 09:39:33;;;;;;;14.23;9.83;;;2.60;99.90;;;;;;6072903;23;20709;-76
2021/01/04 09:42:01;;;;;;;11.53;7.90;;;2.70;99.90;;;;;;6098251;23;20391;-77
2021/01/04 09:44:27;;;;;;;13.50;9.73;;;2.80;99.90;;;;;;6071142;23;20376;-76
2021/01/04 09:46:54;;;;;;;15.93;10.43;;;2.70;99.90;;;;;;6095266;23;20380;-76
2021/01/04 09:49:41;;;;;;;13.23;8.80;;;2.80;99.90;;;;;;6096947;23;20406;-76
2021/01/04 09:52:35;;;;;;;12.47;9.33;;;2.80;99.90;;;;;;6072372;23;21124;-76
2021/01/04 09:55:08;;;;;;;12.67;7.47;;;2.90;99.90;;;;;;6096297;23;20443;-76
2021/01/04 09:57:41;;;;;;;10.67;8.17;;;2.90;99.90;;;;;;6093000;23;20380;-76
2021/01/04 10:00:25;;;;;;;11.97;8.50;;;3.00;99.90;;;;;;6073406;23;20968;-76
2021/01/04 10:03:19;;;;;;;11.23;8.63;;;3.00;99.90;;;;;;6097557;23;20382;-77
2021/01/04 10:05:47;;;;;;;14.67;8.47;;;3.00;99.90;;;;;;6092876;23;20376;-77
2021/01/04 10:08:33;;;;;;;12.90;8.90;;;3.00;99.90;;;;;;6047240;23;20414;-76
2021/01/04 10:11:06;;;;;;;13.80;8.70;;;2.90;99.90;;;;;;6072199;23;20380;-77
2021/01/04 10:13:38;;;;;;;13.87;9.43;;;2.90;99.90;;;;;;6097663;23;20356;-76
2021/01/04 10:16:08;;;;;;;11.87;8.70;;;2.90;99.90;;;;;;6098446;23;20390;-76
2021/01/04 10:18:33;;;;;;;11.47;7.67;;;3.00;99.90;;;;;;6071125;23;20925;-76
2021/01/04 10:21:00;;;;;;;9.37;5.70;;;2.90;99.90;;;;;;6049421;23;20496;-76
2021/01/04 10:23:34;;;;;;;12.97;9.03;;;2.80;99.90;;;;;;6071425;23;20621;-76
2021/01/04 10:26:01;;;;;;;11.60;8.57;;;2.80;99.90;;;;;;6047033;23;20338;-77
2021/01/04 10:28:35;;;;;;;9.07;6.93;;;2.80;99.90;;;;;;6047385;23;20388;-76
2021/01/04 10:31:19;;;;;;;11.93;7.50;;;2.80;99.90;;;;;;6049506;23;20365;-77
2021/01/04 10:33:46;;;;;;;12.03;7.83;;;2.70;99.90;;;;;;6072516;23;20705;-77
2021/01/04 10:36:14;;;;;;;10.57;8.00;;;2.80;99.90;;;;;;6023202;23;20361;-75
2021/01/04 10:38:44;;;;;;;15.43;9.90;;;2.80;99.90;;;;;;6072730;23;20356;-76
2021/01/04 10:41:12;;;;;;;14.17;10.13;;;2.80;99.90;;;;;;6045754;23;20831;-76
2021/01/04 10:43:38;;;;;;;12.43;8.50;;;2.90;99.90;;;;;;6049751;23;20572;-77
2021/01/04 10:46:46;;;;;;;15.97;10.30;;;2.90;99.90;;;;;;6048688;23;20450;-77
2021/01/04 10:49:27;;;;;;;12.77;8.83;;;2.80;99.90;;;;;;6056817;23;20681;-76
2021/01/04 10:51:55;;;;;;;14.87;9.67;;;2.90;99.90;;;;;;6049452;23;20395;-77
2021/01/04 10:54:42;;;;;;;19.40;10.20;;;2.90;99.90;;;;;;6073599;23;20359;-77
2021/01/04 10:57:36;;;;;;;15.47;10.83;;;2.90;99.90;;;;;;6096168;23;20335;-76
2021/01/04 11:00:16;;;;;;;20.80;11.90;;;3.00;99.90;;;;;;6047440;23;20371;-75
2021/01/04 11:02:46;;;;;;;14.20;8.67;;;3.10;99.90;;;;;;6097470;23;20869;-75
2021/01/04 11:05:14;;;;;;;14.90;11.37;;;3.10;99.90;;;;;;6070698;23;20357;-77
2021/01/04 11:07:40;;;;;;;20.93;12.90;;;3.10;99.90;;;;;;6047725;23;20832;-77
2021/01/04 11:10:25;;;;;;;18.80;12.40;;;3.10;99.90;;;;;;6071101;23;20690;-77
2021/01/04 11:12:54;;;;;;;16.60;12.07;;;3.30;99.90;;;;;;6049345;23;20350;-76
2021/01/04 11:15:27;;;;;;;18.97;12.63;;;3.40;99.90;;;;;;6063063;23;20394;-77
2021/01/04 11:18:11;;;;;;;21.27;14.73;;;3.40;99.90;;;;;;6071948;23;20396;-76
2021/01/04 11:20:40;;;;;;;20.33;12.57;;;3.50;99.90;;;;;;6095679;23;20928;-77
2021/01/04 11:23:14;;;;;;;20.00;13.03;;;3.50;99.90;;;;;;6097958;23;20459;-77
2021/01/04 11:25:42;;;;;;;22.20;14.57;;;3.40;99.90;;;;;;6096596;23;20398;-76
2021/01/04 11:28:08;;;;;;;18.50;11.37;;;3.60;99.90;;;;;;6070568;23;20847;-76
2021/01/04 11:30:34;;;;;;;18.73;13.27;;;3.50;99.90;;;;;;6071693;23;20355;-76
2021/01/04 11:33:00;;;;;;;22.03;13.40;;;3.50;99.90;;;;;;6047864;23;20173;-77
2021/01/04 11:35:28;;;;;;;22.00;14.13;;;3.50;99.90;;;;;;6096235;23;20460;-77
2021/01/04 11:37:54;;;;;;;24.03;14.70;;;3.50;99.90;;;;;;6095279;23;20375;-77
2021/01/04 11:40:20;;;;;;;20.80;14.87;;;3.60;99.90;;;;;;6068060;23;20358;-77
2021/01/04 11:42:46;;;;;;;21.00;12.10;;;3.70;99.90;;;;;;6072063;23;20383;-77
2021/01/04 11:45:15;;;;;;;17.63;12.60;;;3.70;99.90;;;;;;6096648;23;20367;-77
2021/01/04 11:47:40;;;;;;;19.57;13.60;;;3.50;99.90;;;;;;6098086;23;20338;-77
2021/01/04 11:50:08;;;;;;;17.13;12.43;;;3.50;99.90;;;;;;6073139;23;20541;-77
2021/01/04 11:52:35;;;;;;;20.83;13.17;;;3.50;99.90;;;;;;6074006;23;20165;-77
2021/01/04 11:55:03;;;;;;;21.30;12.77;;;3.60;99.90;;;;;;6097479;23;20390;-77
2021/01/04 11:57:28;;;;;;;16.33;11.57;;;3.70;99.90;;;;;;6097637;23;20349;-78
2021/01/04 11:59:54;;;;;;;19.00;13.57;;;3.80;99.90;;;;;;6096709;23;20355;-77
2021/01/04 12:02:20;;;;;;;19.60;14.07;;;3.70;99.90;;;;;;6046424;23;20244;-77
2021/01/04 12:04:46;;;;;;;19.40;13.23;;;3.70;99.90;;;;;;6075487;23;20957;-77
2021/01/04 12:07:12;;;;;;;18.03;14.10;;;3.70;99.90;;;;;;6096433;23;20169;-77
2021/01/04 12:09:38;;;;;;;23.93;14.13;;;3.80;99.90;;;;;;6098464;23;20774;-77
2021/01/04 12:12:06;;;;;;;20.30;14.97;;;3.80;99.90;;;;;;6071994;23;20374;-78
2021/01/04 12:14:32;;;;;;;20.80;13.87;;;3.70;99.90;;;;;;6099290;23;20204;-77
2021/01/04 12:17:07;;;;;;;19.03;13.30;;;3.70;99.90;;;;;;6048255;23;20426;-77
2021/01/04 12:19:33;;;;;;;20.80;14.40;;;3.60;99.90;;;;;;6047503;23;20228;-77
2021/01/04 12:22:01;;;;;;;20.43;14.50;;;3.50;99.90;;;;;;6046781;23;20460;-77
2021/01/04 12:24:27;;;;;;;16.73;11.97;;;3.50;99.90;;;;;;6098042;23;20728;-77
2021/01/04 12:26:53;;;;;;;20.50;13.57;;;3.50;99.90;;;;;;6043621;23;20375;-76
2021/01/04 12:29:18;;;;;;;22.37;13.63;;;3.70;99.90;;;;;;6071995;23;20184;-77
2021/01/04 12:31:45;;;;;;;18.20;11.90;;;3.70;99.90;;;;;;6072181;23;20203;-77
2021/01/04 12:34:10;;;;;;;18.63;13.40;;;3.70;99.90;;;;;;6073432;23;20286;-77
2021/01/04 12:36:36;;;;;;;19.03;12.30;;;3.70;99.90;;;;;;6023783;23;20474;-77
2021/01/04 12:39:02;;;;;;;18.33;12.40;;;3.70;99.90;;;;;;6046884;23;20473;-77
2021/01/04 12:41:27;;;;;;;15.80;11.47;;;3.70;99.90;;;;;;6000991;23;20259;-77
2021/01/04 12:43:53;;;;;;;14.43;11.20;;;3.70;99.90;;;;;;6049066;23;20529;-77
2021/01/04 12:46:19;;;;;;;19.73;14.30;;;3.70;99.90;;;;;;6070543;23;20169;-77
2021/01/04 12:48:45;;;;;;;20.17;14.27;;;3.60;99.90;;;;;;6025417;23;20189;-76
2021/01/04 12:51:13;;;;;;;20.27;14.20;;;3.50;99.90;;;;;;6096240;23;20173;-76
2021/01/04 12:53:39;;;;;;;17.97;12.67;;;3.60;99.90;;;;;;6072269;23;20224;-76
2021/01/04 12:56:06;;;;;;;19.50;10.40;;;3.60;99.90;;;;;;6046734;23;20447;-76
2021/01/04 12:58:32;;;;;;;17.47;12.10;;;3.60;99.90;;;;;;6097839;23;20185;-76
2021/01/04 13:00:59;;;;;;;17.73;11.63;;;3.60;99.90;;;;;;6024585;23;20483;-77
2021/01/04 13:03:25;;;;;;;17.70;11.90;;;3.60;99.90;;;;;;6048385;23;20372;-77
2021/01/04 13:05:51;;;;;;;15.53;11.87;;;3.60;99.90;;;;;;6047912;23;20371;-77
2021/01/04 13:08:17;;;;;;;16.83;12.27;;;3.50;99.90;;;;;;6023986;23;20187;-77
2021/01/04 13:10:43;;;;;;;20.30;12.70;;;3.50;99.90;;;;;;6049596;23;21236;-77
2021/01/04 13:13:09;;;;;;;18.20;13.93;;;3.50;99.90;;;;;;6048782;23;20358;-76
2021/01/04 13:15:35;;;;;;;16.27;12.10;;;3.50;99.90;;;;;;6091059;23;20201;-77
2021/01/04 13:18:00;;;;;;;16.37;11.67;;;3.50;99.90;;;;;;6075543;23;20195;-77
2021/01/04 13:20:26;;;;;;;16.30;12.17;;;3.50;99.90;;;;;;6048894;23;20643;-77
2021/01/04 13:22:52;;;;;;;18.87;11.40;;;3.60;99.90;;;;;;6049261;23;20197;-76
2021/01/04 13:25:17;;;;;;;19.40;13.60;;;3.60;99.90;;;;;;6071464;23;20174;-76